Broken Arrow, OK (74012)

1:05 AM CDT on September 01, 2015 (GMT -0500)
Downtown | | Change Station
CLOSE
Current Station
Personal Weather Station
Location: Broken Arrow, OK
Elevation: 764 ft
Nearby Weather Stations

Elev 764 ft 36.05 °N, 95.79 °W | Updated 16 seconds ago

Clear
Clear
76.8 °F
Feels Like 78 °F
N
6.0
Wind Variable Wind from SSE

Today
High -- | Low -- °F
--% Chance of Precip.
Yesterday
High -- | Low -- °F
Precip. -- in
6:54 AM 7:51 PM
Waning Gibbous, 91% visible
Pressure 30.02 in
Visibility 8.0 miles
Clouds Clear
Heat Index 78 °F
Dew Point 69 °F
Humidity 76%
Rainfall 0.00 in
Snow Depth Not available.
UV 0 out of 12
Pollen 9.80 out of 12
Air Quality Not available.
Flu Activity Not available.
METAR KRVS 010553Z AUTO 00000KT 8SM CLR 22/21 A3002 RMK AO2 SLP166 T02170206 10317 20217 403390200 53008
Pressure 30.02 in
Visibility 8.0 miles
Clouds Clear
Heat Index 78 °F
Dew Point 69 °F
Humidity 76%
Rainfall 0.00 in
Snow Depth Not available.
UV 0 out of 12
Pollen 9.80 out of 12
Air Quality Not available.
Flu Activity Not available.
METAR KRVS 010553Z AUTO 00000KT 8SM CLR 22/21 A3002 RMK AO2 SLP166 T02170206 10317 20217 403390200 53008

10-Day Weather Forecast

×

Almanac

Astronomy

Sep. 01, 2015 Rise Set
Actual Time
Civil Twilight
Nautical Twilight
Astronomical Twilight
Moon
Length of Visible Light
Length of Day
Tomorrow will be .
, % of the Moon is Illuminated

Today's Extremes

State Highs State Lows

Community

WunderPhotos

Upload Photos

1,851,484 photos uploaded!

WunderBlogs® & News

Nearby

Air Quality

  Air Quality AQ Index Pollutant
Not available.

Snow Depth

Station Depth Elevation

Earthquake Activity

City Distance Mag. Time & Date
Minimum magnitude displayed is 2.5.

Coastal Water Temperatures

Place Temperature

Stations

Nearby Weather Stations

Station Location Temp. Windchill Dew Point Humidity Wind Precip. Elev Updated Type